createdAt,value
2023-04-14T00:00:13.477Z,45.09
2023-04-14T00:02:44.295Z,44.98
2023-04-14T00:05:12.909Z,44.96
2023-04-14T00:07:41.228Z,44.96
2023-04-14T00:10:10.521Z,44.90
2023-04-14T00:12:38.804Z,44.97
2023-04-14T00:15:07.958Z,44.94
2023-04-14T00:17:37.938Z,44.86
2023-04-14T00:20:07.017Z,44.97
2023-04-14T00:22:35.280Z,44.88
2023-04-14T00:25:04.162Z,44.86
2023-04-14T00:27:32.474Z,44.86
2023-04-14T00:30:01.040Z,44.83
2023-04-14T00:32:29.828Z,44.82
2023-04-14T00:35:00.382Z,44.74
2023-04-14T00:37:31.410Z,44.59
2023-04-14T00:40:01.101Z,44.47
2023-04-14T00:42:29.545Z,44.32
2023-04-14T00:44:57.590Z,44.08
2023-04-14T00:47:26.699Z,44.06
2023-04-14T00:49:54.780Z,44.10
2023-04-14T00:52:22.844Z,43.87
2023-04-14T00:54:51.305Z,43.68
2023-04-14T00:57:19.612Z,43.68
2023-04-14T00:59:48.782Z,43.76
2023-04-14T01:02:18.308Z,43.74
2023-04-14T01:04:54.167Z,43.84
2023-04-14T01:07:23.886Z,43.79
2023-04-14T01:09:53.472Z,43.68
2023-04-14T01:12:34.059Z,43.66
2023-04-14T01:15:15.926Z,43.53
2023-04-14T01:17:59.312Z,43.26
2023-04-14T01:20:36.456Z,43.31
2023-04-14T01:23:08.908Z,43.25
2023-04-14T01:25:43.210Z,43.24
2023-04-14T01:28:37.906Z,43.04
2023-04-14T01:31:56.062Z,43.08
2023-04-14T01:34:42.819Z,42.99
2023-04-14T01:37:15.294Z,42.99
2023-04-14T01:39:47.224Z,43.03
2023-04-14T01:42:17.435Z,43.02
2023-04-14T01:44:45.553Z,43.04
2023-04-14T01:47:15.340Z,43.04
2023-04-14T01:49:43.913Z,42.97
2023-04-14T01:52:12.319Z,42.97
2023-04-14T01:54:41.620Z,42.96
2023-04-14T01:57:11.369Z,43.09
2023-04-14T01:59:41.855Z,43.29
2023-04-14T02:02:11.482Z,43.37
2023-04-14T02:04:39.994Z,43.64
2023-04-14T02:07:08.650Z,43.71
2023-04-14T02:09:36.877Z,43.68
2023-04-14T02:12:05.340Z,43.56
2023-04-14T02:14:33.459Z,43.50
2023-04-14T02:17:03.198Z,43.56
2023-04-14T02:19:32.110Z,43.66
2023-04-14T02:22:03.111Z,43.74
2023-04-14T02:24:32.316Z,43.73
2023-04-14T02:27:10.968Z,43.72
2023-04-14T02:29:43.543Z,43.70
2023-04-14T02:32:22.851Z,43.69
2023-04-14T02:35:16.958Z,43.67
2023-04-14T02:37:49.007Z,43.68
2023-04-14T02:40:20.324Z,43.48
2023-04-14T02:42:53.041Z,43.28
2023-04-14T02:45:22.927Z,43.26
2023-04-14T02:47:59.809Z,43.06
2023-04-14T02:50:28.862Z,42.93
2023-04-14T02:53:02.857Z,43.01
2023-04-14T02:55:35.306Z,43.05
2023-04-14T02:58:03.653Z,43.05
2023-04-14T03:00:33.308Z,42.94
2023-04-14T03:03:02.549Z,42.84
2023-04-14T03:05:31.372Z,42.88
2023-04-14T03:08:04.376Z,42.94
2023-04-14T03:10:33.253Z,42.99
2023-04-14T03:13:02.524Z,43.04
2023-04-14T03:15:30.788Z,43.20
2023-04-14T03:17:59.354Z,43.29
2023-04-14T03:20:30.156Z,43.19
2023-04-14T03:23:01.666Z,43.07
2023-04-14T03:25:33.095Z,43.26
2023-04-14T03:28:02.916Z,43.31
2023-04-14T03:30:32.578Z,43.46
2023-04-14T03:33:04.622Z,43.45
2023-04-14T03:35:34.511Z,43.49
2023-04-14T03:38:02.967Z,43.59
2023-04-14T03:40:32.128Z,43.62
2023-04-14T03:43:02.669Z,43.62
2023-04-14T03:45:32.420Z,43.79
2023-04-14T03:48:03.521Z,44.06
2023-04-14T03:50:36.928Z,44.22
2023-04-14T03:53:06.550Z,44.21
2023-04-14T03:55:34.651Z,44.16
2023-04-14T03:58:12.456Z,44.14
2023-04-14T04:00:41.420Z,44.19
2023-04-14T04:03:10.907Z,44.23
2023-04-14T04:05:42.164Z,44.22
2023-04-14T04:08:10.799Z,44.18
2023-04-14T04:10:39.044Z,44.11
2023-04-14T04:13:13.560Z,44.14
2023-04-14T04:15:42.009Z,44.08
2023-04-14T04:18:11.505Z,43.94
2023-04-14T04:20:39.836Z,43.71
2023-04-14T04:23:08.716Z,43.81
2023-04-14T04:25:37.593Z,44.01
2023-04-14T04:28:15.565Z,44.08
2023-04-14T04:30:45.747Z,44.26
2023-04-14T04:33:15.753Z,44.24
2023-04-14T04:35:44.314Z,44.39
2023-04-14T04:38:13.317Z,44.27
2023-04-14T04:40:43.405Z,44.14
2023-04-14T04:43:19.407Z,44.04
2023-04-14T04:46:19.666Z,44.03
2023-04-14T04:48:52.659Z,43.98
2023-04-14T04:51:21.131Z,44.02
2023-04-14T04:53:49.678Z,43.99
2023-04-14T04:56:21.892Z,43.97
2023-04-14T04:58:50.531Z,43.76
2023-04-14T05:01:21.602Z,43.74
2023-04-14T05:03:50.695Z,43.80
2023-04-14T05:06:18.971Z,43.90
2023-04-14T05:08:56.300Z,43.96
2023-04-14T05:11:24.979Z,43.91
2023-04-14T05:13:53.228Z,43.90
2023-04-14T05:16:21.343Z,43.85
2023-04-14T05:19:00.245Z,44.08
2023-04-14T05:21:29.365Z,44.04
2023-04-14T05:23:57.546Z,44.08
2023-04-14T05:26:49.033Z,43.91
2023-04-14T05:29:16.342Z,43.84
2023-04-14T05:31:44.510Z,44.03
2023-04-14T05:34:12.740Z,43.98
2023-04-14T05:36:41.720Z,43.84
2023-04-14T05:39:10.092Z,44.02
2023-04-14T05:41:39.334Z,44.08
2023-04-14T05:44:08.836Z,44.03
2023-04-14T05:46:37.092Z,44.04
2023-04-14T05:49:06.621Z,44.15
2023-04-14T05:51:34.970Z,44.11
2023-04-14T05:54:07.618Z,44.25
2023-04-14T05:56:36.878Z,44.29
2023-04-14T05:59:05.052Z,44.33
2023-04-14T06:01:34.100Z,44.41
2023-04-14T06:04:04.257Z,44.58
2023-04-14T06:06:32.984Z,44.44
2023-04-14T06:09:05.894Z,44.30
2023-04-14T06:11:34.143Z,44.16
2023-04-14T06:14:03.213Z,44.04
2023-04-14T06:16:32.110Z,44.10
2023-04-14T06:19:04.288Z,44.06
2023-04-14T06:21:32.800Z,43.83
2023-04-14T06:24:00.959Z,43.75
2023-04-14T06:26:29.478Z,43.85
2023-04-14T06:29:01.314Z,44.01
2023-04-14T06:31:29.761Z,43.73
2023-04-14T06:34:00.715Z,43.70
2023-04-14T06:36:31.834Z,43.45
2023-04-14T06:39:00.540Z,43.50
2023-04-14T06:41:33.401Z,43.81
2023-04-14T06:44:10.035Z,43.98
2023-04-14T06:46:38.472Z,44.01
2023-04-14T06:49:08.715Z,44.04
2023-04-14T06:51:40.279Z,44.05
2023-04-14T06:54:08.756Z,43.91
2023-04-14T06:56:36.782Z,43.88
2023-04-14T06:59:05.085Z,43.65
2023-04-14T07:01:33.500Z,43.77
2023-04-14T07:04:06.876Z,43.78
2023-04-14T07:06:36.234Z,44.02
2023-04-14T07:09:06.486Z,44.13
2023-04-14T07:11:34.758Z,44.19
2023-04-14T07:14:03.568Z,44.13
2023-04-14T07:16:32.082Z,44.25
2023-04-14T07:19:01.104Z,44.31
2023-04-14T07:21:29.646Z,44.27
2023-04-14T07:24:07.530Z,44.33
2023-04-14T07:26:37.106Z,44.41
2023-04-14T07:29:05.356Z,44.39
2023-04-14T07:31:35.810Z,44.39
2023-04-14T07:34:04.316Z,43.76
2023-04-14T07:36:33.039Z,43.82
2023-04-14T07:39:01.734Z,44.18
2023-04-14T07:41:30.067Z,43.94
2023-04-14T07:43:59.707Z,44.12
2023-04-14T07:46:28.736Z,44.03
2023-04-14T07:48:57.149Z,44.05
2023-04-14T07:51:31.548Z,44.07
2023-04-14T07:54:00.101Z,44.10
2023-04-14T07:56:28.299Z,44.22
2023-04-14T07:58:57.363Z,44.17
2023-04-14T08:01:25.821Z,43.85
2023-04-14T08:03:54.736Z,43.90
2023-04-14T08:06:22.983Z,43.76
2023-04-14T08:08:52.529Z,43.56
2023-04-14T08:11:20.623Z,43.61
2023-04-14T08:13:50.083Z,43.75
2023-04-14T08:16:21.490Z,43.84
2023-04-14T08:18:51.853Z,43.79
2023-04-14T08:21:19.919Z,43.82
2023-04-14T08:23:48.164Z,43.71
2023-04-14T08:26:16.508Z,43.98
2023-04-14T08:28:44.844Z,43.85
2023-04-14T08:31:16.730Z,43.23
2023-04-14T08:33:46.298Z,43.29
2023-04-14T08:36:14.338Z,43.27
2023-04-14T08:38:46.501Z,43.69
2023-04-14T08:41:17.417Z,43.83
2023-04-14T08:43:45.809Z,43.85
2023-04-14T08:49:13.579Z,45.85
2023-04-14T08:51:43.778Z,43.56
2023-04-14T08:54:12.602Z,43.02
2023-04-14T08:56:42.724Z,42.82
2023-04-14T08:59:11.636Z,42.69
2023-04-14T09:01:40.266Z,42.26
2023-04-14T09:04:09.322Z,41.93
2023-04-14T09:06:38.184Z,42.18
2023-04-14T09:09:10.757Z,42.37
2023-04-14T09:11:39.034Z,42.66
2023-04-14T09:14:07.180Z,42.68
2023-04-14T09:16:36.187Z,42.66
2023-04-14T09:19:07.092Z,42.36
2023-04-14T09:21:53.830Z,42.23
2023-04-14T09:24:32.117Z,42.15
2023-04-14T09:27:05.486Z,42.69
2023-04-14T09:29:33.871Z,42.61
2023-04-14T09:32:02.096Z,42.70
2023-04-14T09:34:32.439Z,42.63
2023-04-14T09:37:07.543Z,42.83
2023-04-14T09:39:36.854Z,42.73
2023-04-14T09:42:05.557Z,42.34
2023-04-14T09:44:34.126Z,42.13
2023-04-14T09:47:06.778Z,42.14
2023-04-14T09:49:35.673Z,42.27
2023-04-14T09:52:09.053Z,42.02
2023-04-14T09:54:40.178Z,41.84
2023-04-14T09:57:08.415Z,41.79
2023-04-14T09:59:37.986Z,41.75
2023-04-14T10:02:09.953Z,41.78
2023-04-14T10:04:38.325Z,41.49
2023-04-14T10:07:08.371Z,41.37
2023-04-14T10:09:38.561Z,40.92
2023-04-14T10:12:09.839Z,40.63
2023-04-14T10:14:43.489Z,40.80
2023-04-14T10:17:13.776Z,40.79
2023-04-14T10:19:42.150Z,40.53
2023-04-14T10:22:10.363Z,40.47
2023-04-14T10:24:38.756Z,40.39
2023-04-14T10:27:06.898Z,40.23
2023-04-14T10:29:36.160Z,40.27
2023-04-14T10:32:08.864Z,40.36
2023-04-14T10:34:37.473Z,40.36
2023-04-14T10:37:15.673Z,40.51
2023-04-14T10:39:43.919Z,40.32
2023-04-14T10:42:12.502Z,40.33
2023-04-14T10:44:40.930Z,40.27
2023-04-14T10:47:09.141Z,40.44
2023-04-14T10:49:38.783Z,40.34
2023-04-14T10:52:16.882Z,40.30
2023-04-14T10:54:54.386Z,40.53
2023-04-14T10:57:25.999Z,40.59
2023-04-14T10:59:55.955Z,40.26
2023-04-14T11:02:30.872Z,40.28
2023-04-14T11:05:04.597Z,40.27
2023-04-14T11:07:47.330Z,40.47
2023-04-14T11:10:21.532Z,40.87
2023-04-14T11:12:54.838Z,40.86
2023-04-14T11:15:50.015Z,41.04
2023-04-14T11:18:29.029Z,41.25
2023-04-14T11:21:05.009Z,41.09
2023-04-14T11:23:36.118Z,41.09
2023-04-14T11:26:12.335Z,41.42
2023-04-14T11:28:44.674Z,41.66
2023-04-14T11:31:15.236Z,41.66
2023-04-14T11:33:44.750Z,41.78
2023-04-14T11:36:16.660Z,41.76
2023-04-14T11:38:47.941Z,41.47
2023-04-14T11:41:16.526Z,41.27
2023-04-14T11:43:47.189Z,41.17
2023-04-14T11:46:18.371Z,41.19
2023-04-14T11:48:55.155Z,40.96
2023-04-14T11:51:32.441Z,40.75
2023-04-14T11:54:01.689Z,40.45
2023-04-14T11:56:30.889Z,40.63
2023-04-14T11:59:00.996Z,40.63
2023-04-14T12:01:32.207Z,40.71
2023-04-14T12:04:01.554Z,40.72
2023-04-14T12:06:30.248Z,40.62
2023-04-14T12:09:08.624Z,40.46
2023-04-14T12:11:37.643Z,40.69
2023-04-14T12:14:05.906Z,40.76
2023-04-14T12:16:34.189Z,40.51
2023-04-14T12:19:03.986Z,40.18
2023-04-14T12:21:33.052Z,40.33
2023-04-14T12:24:01.154Z,40.61
2023-04-14T12:26:30.123Z,40.63
2023-04-14T12:28:59.726Z,40.82
2023-04-14T12:31:30.029Z,40.45
2023-04-14T12:34:03.670Z,40.27
2023-04-14T12:36:48.150Z,40.35
2023-04-14T12:39:22.334Z,40.16
2023-04-14T12:41:50.813Z,39.71
2023-04-14T12:44:20.845Z,39.61
2023-04-14T12:46:50.582Z,39.26
2023-04-14T12:49:31.227Z,38.97
2023-04-14T12:52:00.428Z,38.70
2023-04-14T12:54:45.927Z,38.62
2023-04-14T12:57:14.204Z,38.33
2023-04-14T12:59:43.286Z,38.29
2023-04-14T13:02:11.470Z,38.18
2023-04-14T13:04:40.071Z,38.36
2023-04-14T13:07:08.233Z,38.43
2023-04-14T13:09:36.345Z,38.41
2023-04-14T13:12:04.524Z,38.68
2023-04-14T13:14:32.535Z,38.70
2023-04-14T13:17:01.614Z,38.60
2023-04-14T13:19:30.058Z,38.95
2023-04-14T13:21:58.079Z,39.03
2023-04-14T13:24:26.982Z,39.06
2023-04-14T13:26:55.071Z,39.00
2023-04-14T13:29:25.487Z,38.85
2023-04-14T13:31:55.491Z,38.64
2023-04-14T13:34:23.798Z,38.62
2023-04-14T13:36:53.408Z,38.66
2023-04-14T13:39:22.835Z,38.77
2023-04-14T13:41:52.263Z,38.94
2023-04-14T13:44:20.347Z,38.47
2023-04-14T13:46:51.580Z,38.48
2023-04-14T13:49:19.687Z,38.53
2023-04-14T13:51:47.718Z,38.77
2023-04-14T13:54:15.751Z,38.66
2023-04-14T13:56:44.531Z,38.77
2023-04-14T13:59:16.243Z,38.80
2023-04-14T14:01:44.691Z,38.89
2023-04-14T14:04:13.807Z,38.94
2023-04-14T14:06:42.905Z,39.03
2023-04-14T14:09:11.113Z,38.98
2023-04-14T14:11:44.224Z,39.08
2023-04-14T14:14:13.064Z,38.86
2023-04-14T14:16:41.653Z,39.00
2023-04-14T14:19:18.270Z,39.08
2023-04-14T14:21:47.331Z,39.18
2023-04-14T14:24:15.471Z,39.03
2023-04-14T14:26:43.686Z,39.26
2023-04-14T14:29:12.072Z,39.40
2023-04-14T14:31:40.513Z,39.33
2023-04-14T14:34:09.730Z,39.15
2023-04-14T14:36:37.802Z,39.12
2023-04-14T14:39:07.178Z,39.00
2023-04-14T14:41:36.131Z,38.96
2023-04-14T14:44:04.959Z,39.15
2023-04-14T14:46:36.494Z,39.40
2023-04-14T14:49:05.529Z,39.62
2023-04-14T14:51:34.008Z,39.60
2023-04-14T14:54:10.057Z,39.88
2023-04-14T14:56:38.818Z,39.82
2023-04-14T14:59:08.535Z,40.10
2023-04-14T15:01:37.331Z,40.66
2023-04-14T15:04:07.829Z,40.71
2023-04-14T15:06:36.584Z,40.57
2023-04-14T15:09:05.672Z,40.63
2023-04-14T15:11:36.806Z,40.54
2023-04-14T15:14:05.259Z,40.32
2023-04-14T15:16:33.539Z,40.45
2023-04-14T15:19:03.470Z,40.40
2023-04-14T15:21:33.007Z,40.25
2023-04-14T15:24:01.785Z,40.29
2023-04-14T15:26:32.223Z,40.40
2023-04-14T15:29:02.554Z,40.42
2023-04-14T15:31:31.169Z,40.49
2023-04-14T15:34:02.494Z,40.47
2023-04-14T15:36:34.022Z,40.31
2023-04-14T15:39:02.285Z,40.21
2023-04-14T15:41:30.415Z,40.27
2023-04-14T15:43:58.785Z,40.36
2023-04-14T15:46:27.715Z,40.19
2023-04-14T15:48:57.707Z,40.47
2023-04-14T15:51:26.394Z,40.64
2023-04-14T15:53:54.525Z,40.73
2023-04-14T15:56:26.047Z,40.57
2023-04-14T15:58:54.149Z,40.38
2023-04-14T16:01:22.407Z,40.32
2023-04-14T16:03:52.717Z,40.46
2023-04-14T16:06:21.587Z,40.68
2023-04-14T16:08:49.818Z,40.78
2023-04-14T16:11:18.054Z,40.80
2023-04-14T16:13:56.939Z,40.82
2023-04-14T16:16:26.418Z,40.74
2023-04-14T16:18:55.119Z,40.88
2023-04-14T16:21:23.655Z,41.00
2023-04-14T16:23:51.914Z,41.02
2023-04-14T16:26:20.321Z,41.13
2023-04-14T16:28:52.672Z,41.15
2023-04-14T16:31:21.956Z,41.15
2023-04-14T16:33:50.488Z,41.22
2023-04-14T16:36:19.255Z,41.38
2023-04-14T16:38:51.014Z,41.44
2023-04-14T16:41:19.307Z,41.49
2023-04-14T16:43:47.663Z,41.76
2023-04-14T16:46:16.744Z,41.95
2023-04-14T16:48:44.940Z,42.00
2023-04-14T16:51:15.035Z,42.07
2023-04-14T16:53:46.035Z,42.18
2023-04-14T16:56:14.186Z,42.19
2023-04-14T16:58:45.320Z,42.16
2023-04-14T17:01:13.757Z,42.32
2023-04-14T17:03:42.640Z,42.32
2023-04-14T17:06:11.004Z,42.30
2023-04-14T17:08:41.685Z,42.53
2023-04-14T17:11:09.837Z,42.54
2023-04-14T17:13:38.392Z,42.55
2023-04-14T17:16:11.982Z,42.28
2023-04-14T17:18:41.574Z,42.27
2023-04-14T17:21:09.678Z,42.41
2023-04-14T17:23:49.022Z,42.51
2023-04-14T17:26:17.749Z,42.50
2023-04-14T17:28:46.222Z,42.52
2023-04-14T17:31:21.070Z,42.42
2023-04-14T17:33:49.751Z,42.36
2023-04-14T17:36:18.437Z,42.29
2023-04-14T17:38:47.268Z,42.57
2023-04-14T17:41:16.220Z,42.93
2023-04-14T17:43:46.911Z,42.90
2023-04-14T17:46:16.790Z,42.84
2023-04-14T17:48:45.068Z,43.05
2023-04-14T17:51:13.487Z,42.97
2023-04-14T17:53:43.065Z,42.97
2023-04-14T17:56:11.693Z,42.75
2023-04-14T17:58:40.648Z,42.73
2023-04-14T18:01:09.874Z,42.74
2023-04-14T18:03:38.432Z,42.77
2023-04-14T18:06:07.120Z,42.78
2023-04-14T18:08:36.820Z,42.83
2023-04-14T18:11:06.862Z,42.75
2023-04-14T18:13:36.351Z,42.77
2023-04-14T18:16:05.522Z,42.74
2023-04-14T18:18:36.419Z,42.67
2023-04-14T18:21:04.863Z,42.64
2023-04-14T18:23:33.198Z,42.61
2023-04-14T18:28:39.118Z,42.60
2023-04-14T18:31:07.863Z,42.52
2023-04-14T18:33:36.453Z,42.66
2023-04-14T18:36:05.309Z,42.74
2023-04-14T18:38:33.407Z,42.71
2023-04-14T18:41:03.703Z,42.79
2023-04-14T18:43:33.321Z,42.74
2023-04-14T18:46:02.554Z,42.70
2023-04-14T18:48:34.579Z,42.77
2023-04-14T18:51:08.023Z,42.85
2023-04-14T18:53:36.198Z,43.03
2023-04-14T18:56:04.779Z,43.01
2023-04-14T18:58:34.272Z,43.11
2023-04-14T19:01:02.804Z,43.05
2023-04-14T19:03:33.247Z,43.23
2023-04-14T19:06:01.781Z,43.30
2023-04-14T19:08:30.620Z,43.20
2023-04-14T19:11:05.765Z,43.20
2023-04-14T19:13:34.213Z,43.17
2023-04-14T19:16:09.101Z,43.25
2023-04-14T19:18:37.268Z,43.31
2023-04-14T19:21:08.982Z,43.48
2023-04-14T19:23:41.087Z,43.45
2023-04-14T19:26:11.530Z,43.34
2023-04-14T19:28:42.613Z,43.11
2023-04-14T19:31:12.865Z,43.38
2023-04-14T19:33:41.935Z,43.42
2023-04-14T19:36:14.524Z,43.16
2023-04-14T19:38:42.986Z,43.35
2023-04-14T19:41:11.363Z,43.46
2023-04-14T19:43:40.484Z,43.58
2023-04-14T19:46:10.511Z,43.69
2023-04-14T19:48:39.810Z,43.49
2023-04-14T19:51:09.426Z,43.42
2023-04-14T19:53:39.775Z,43.43
2023-04-14T19:56:08.840Z,43.31
2023-04-14T19:58:37.004Z,43.23
2023-04-14T20:01:06.185Z,43.28
2023-04-14T20:03:36.328Z,43.29
2023-04-14T20:06:04.617Z,43.40
2023-04-14T20:08:34.735Z,43.44
2023-04-14T20:11:05.358Z,43.58
2023-04-14T20:13:35.565Z,43.55
2023-04-14T20:16:10.507Z,43.48
2023-04-14T20:18:58.473Z,43.51
2023-04-14T20:21:27.358Z,43.70
2023-04-14T20:23:55.641Z,43.79
2023-04-14T20:26:23.654Z,43.78
2023-04-14T20:28:51.704Z,43.90
2023-04-14T20:31:20.049Z,43.89
2023-04-14T20:33:51.202Z,43.83
2023-04-14T20:36:19.434Z,44.07
2023-04-14T20:38:47.593Z,44.11
2023-04-14T20:41:19.435Z,44.07
2023-04-14T20:43:48.129Z,44.25
2023-04-14T20:46:16.358Z,44.24
2023-04-14T20:48:49.047Z,44.28
2023-04-14T20:51:18.576Z,44.30
2023-04-14T20:53:46.742Z,44.39
2023-04-14T20:56:20.147Z,44.31
2023-04-14T20:58:49.334Z,44.29
2023-04-14T21:01:17.508Z,44.08
2023-04-14T21:03:46.835Z,44.18
2023-04-14T21:07:17.231Z,47.07
2023-04-14T21:09:45.482Z,44.94
2023-04-14T21:12:18.937Z,44.67
2023-04-14T21:15:29.924Z,44.78
2023-04-14T21:17:37.219Z,44.70
2023-04-14T21:20:06.307Z,44.73
2023-04-14T21:22:35.315Z,44.76
2023-04-14T21:25:03.622Z,44.76
2023-04-14T21:27:32.209Z,44.57
2023-04-14T21:30:00.532Z,44.43
2023-04-14T21:32:29.134Z,44.35
2023-04-14T21:34:57.425Z,44.19
2023-04-14T21:37:25.858Z,44.10
2023-04-14T21:39:55.410Z,43.62
2023-04-14T21:42:23.872Z,43.11
2023-04-14T21:44:52.040Z,42.84
2023-04-14T21:47:20.080Z,42.08
2023-04-14T21:49:49.014Z,42.04
2023-04-14T21:52:18.006Z,41.94
2023-04-14T21:54:47.614Z,41.95
2023-04-14T21:57:16.222Z,41.68
2023-04-14T21:59:47.550Z,41.61
2023-04-14T22:02:15.759Z,41.67
2023-04-14T22:04:44.287Z,41.69
2023-04-14T22:07:12.503Z,41.87
2023-04-14T22:09:43.817Z,41.97
2023-04-14T22:12:13.204Z,42.10
2023-04-14T22:14:41.584Z,41.96
2023-04-14T22:17:12.256Z,42.21
2023-04-14T22:19:43.327Z,41.97
2023-04-14T22:22:11.463Z,42.06
2023-04-14T22:24:40.765Z,42.02
2023-04-14T22:27:09.407Z,41.92
2023-04-14T22:29:37.962Z,41.99
2023-04-14T22:32:11.555Z,41.97
2023-04-14T22:34:39.604Z,42.26
2023-04-14T22:37:07.860Z,42.49
2023-04-14T22:39:40.769Z,42.82
2023-04-14T22:42:09.314Z,43.42
2023-04-14T22:44:37.410Z,43.61
2023-04-14T22:47:09.689Z,44.30
2023-04-14T22:49:39.063Z,45.10
2023-04-14T22:52:07.594Z,45.66
2023-04-14T22:54:36.663Z,45.87
2023-04-14T22:57:05.010Z,46.42
2023-04-14T22:59:33.046Z,47.09
2023-04-14T23:02:02.845Z,47.35
2023-04-14T23:04:31.649Z,47.55
2023-04-14T23:06:59.833Z,48.04
2023-04-14T23:09:30.494Z,48.48
2023-04-14T23:12:01.296Z,48.88
2023-04-14T23:14:29.496Z,48.93
2023-04-14T23:17:04.349Z,48.95
2023-04-14T23:19:33.685Z,48.94
2023-04-14T23:22:02.499Z,48.86
2023-04-14T23:24:30.751Z,48.64
2023-04-14T23:26:58.942Z,48.51
2023-04-14T23:29:27.030Z,48.40
2023-04-14T23:31:55.232Z,48.27
2023-04-14T23:34:25.598Z,47.91
2023-04-14T23:36:54.529Z,47.77
2023-04-14T23:39:23.218Z,47.50
2023-04-14T23:41:54.618Z,47.21
2023-04-14T23:44:23.476Z,47.07
2023-04-14T23:46:51.889Z,46.82
2023-04-14T23:49:32.785Z,46.63
2023-04-14T23:52:05.284Z,46.60
2023-04-14T23:54:33.635Z,46.48
2023-04-14T23:57:01.879Z,46.52
2023-04-14T23:59:30.498Z,46.46
